Time;durP1;ratioP1;P1;durP2;ratioP2;P2;SDS_P1;SDS_P2;PMS_P1;PMS_P2;Temp;Humidity;BMP_temperature;BMP_pressure;BME280_temperature;BME280_humidity;BME280_pressure;Samples;Min_cycle;Max_cycle;Signal;HPM_P1;HPM_P2
2021/06/28 00:00:23;;;;;;;2.73;2.53;;;;;;;20.24;92.54;96249.78;5074839;28;20175;-62
2021/06/28 00:02:49;;;;;;;3.17;2.97;;;;;;;20.12;93.89;96239.53;5075211;28;20710;-60
2021/06/28 00:05:17;;;;;;;2.33;2.23;;;;;;;19.99;93.67;96245.56;5094125;28;20443;-60
2021/06/28 00:07:43;;;;;;;2.43;2.33;;;;;;;20.09;93.60;96237.41;5095667;28;20249;-62
2021/06/28 00:10:10;;;;;;;2.60;2.40;;;;;;;19.99;93.09;96231.44;5095633;28;20832;-60
2021/06/28 00:12:37;;;;;;;2.70;2.50;;;;;;;19.83;94.97;96230.84;5095240;28;20166;-61
2021/06/28 00:15:06;;;;;;;2.53;2.33;;;;;;;19.83;95.23;96246.06;5095471;28;20985;-62
2021/06/28 00:17:31;;;;;;;2.57;2.47;;;;;;;19.49;95.91;96233.66;5095535;28;20420;-61
2021/06/28 00:19:57;;;;;;;2.80;2.60;;;;;;;19.66;96.45;96245.75;5092115;28;20412;-62
2021/06/28 00:22:22;;;;;;;2.90;2.70;;;;;;;19.42;97.66;96251.09;5095173;28;20173;-62
2021/06/28 00:24:48;;;;;;;2.50;2.40;;;;;;;19.45;96.94;96248.66;5095247;28;20185;-61
2021/06/28 00:27:13;;;;;;;2.90;2.70;;;;;;;19.37;97.80;96254.59;5095733;28;20166;-60
2021/06/28 00:29:39;;;;;;;3.47;2.73;;;;;;;19.24;99.17;96247.25;5095238;28;20545;-61
2021/06/28 00:32:04;;;;;;;3.40;3.20;;;;;;;19.31;99.43;96254.94;5094838;28;20177;-62
2021/06/28 00:34:30;;;;;;;3.40;3.20;;;;;;;19.31;99.76;96253.06;5086539;28;20204;-62
2021/06/28 00:36:56;;;;;;;3.17;2.97;;;;;;;19.31;100.00;96250.38;5082856;28;20171;-60
2021/06/28 00:39:22;;;;;;;3.10;3.00;;;;;;;19.11;100.00;96242.56;5074665;28;20592;-61
2021/06/28 00:41:48;;;;;;;3.37;3.17;;;;;;;19.04;100.00;96238.69;5074973;28;20413;-61
2021/06/28 00:44:13;;;;;;;3.93;3.53;;;;;;;19.13;100.00;96229.78;5094985;28;20231;-60
2021/06/28 00:46:39;;;;;;;3.67;3.37;;;;;;;18.86;100.00;96232.16;5095011;28;20170;-60
2021/06/28 00:49:04;;;;;;;3.37;3.17;;;;;;;18.92;100.00;96222.25;5094787;28;20201;-62
2021/06/28 00:51:29;;;;;;;2.87;2.53;;;;;;;18.91;100.00;96232.16;5094684;28;20531;-62
2021/06/28 00:53:55;;;;;;;3.00;2.80;;;;;;;19.05;100.00;96225.06;5094585;28;20194;-61
2021/06/28 00:56:21;;;;;;;2.97;2.67;;;;;;;19.17;100.00;96225.47;5095234;28;20643;-61
2021/06/28 00:58:47;;;;;;;3.20;3.00;;;;;;;19.42;99.45;96213.78;5075374;28;20253;-60
2021/06/28 01:01:13;;;;;;;2.80;2.60;;;;;;;19.51;98.60;96220.06;5074448;28;20178;-60
2021/06/28 01:03:39;;;;;;;3.07;2.87;;;;;;;19.51;97.91;96228.06;5073916;28;20425;-62
2021/06/28 01:06:06;;;;;;;3.43;3.00;;;;;;;19.69;96.91;96215.84;5084021;28;20521;-60
2021/06/28 01:08:32;;;;;;;3.20;2.97;;;;;;;19.83;94.99;96214.84;5094385;28;20459;-62
2021/06/28 01:10:58;;;;;;;2.67;2.57;;;;;;;19.98;93.94;96209.31;5094512;28;20408;-60
2021/06/28 01:13:25;;;;;;;3.03;2.83;;;;;;;19.93;95.06;96206.69;5093777;28;20289;-62
2021/06/28 01:15:52;;;;;;;2.73;2.53;;;;;;;19.97;94.60;96212.25;5094305;28;20237;-61
2021/06/28 01:18:17;;;;;;;2.70;2.50;;;;;;;19.87;95.53;96213.19;5094284;28;20407;-60
2021/06/28 01:20:43;;;;;;;3.40;3.10;;;;;;;19.98;95.20;96206.66;5085504;28;20417;-60
2021/06/28 01:23:26;;;;;;;2.80;2.60;;;;;;;20.18;93.78;96210.91;5073802;28;20159;-61
2021/06/28 01:25:56;;;;;;;3.20;2.90;;;;;;;20.22;93.38;96202.03;5056472;28;20206;-60
2021/06/28 01:28:22;;;;;;;3.10;2.90;;;;;;;20.41;92.19;96196.69;5056012;28;20810;-62
2021/06/28 01:30:48;;;;;;;3.20;2.87;;;;;;;20.60;91.58;96196.66;5073857;28;20444;-62
2021/06/28 01:33:13;;;;;;;4.40;2.70;;;;;;;20.84;90.85;96197.28;5073373;28;20927;-62
2021/06/28 01:35:40;;;;;;;2.63;2.53;;;;;;;20.91;89.75;96190.47;5073711;28;20465;-61
2021/06/28 01:38:06;;;;;;;2.63;2.50;;;;;;;21.02;91.15;96191.91;5074340;28;20636;-62
2021/06/28 01:40:31;;;;;;;3.00;2.80;;;;;;;21.17;89.24;96188.16;5069479;28;20429;-62
2021/06/28 01:42:57;;;;;;;3.37;3.17;;;;;;;20.81;90.70;96192.53;5093498;28;20166;-60
2021/06/28 01:45:24;;;;;;;3.10;2.90;;;;;;;20.95;90.49;96191.47;5094030;28;20170;-63
2021/06/28 01:47:50;;;;;;;2.73;2.57;;;;;;;21.14;89.56;96180.72;5093704;28;20198;-60
2021/06/28 01:50:18;;;;;;;3.13;2.93;;;;;;;21.15;89.64;96176.97;5093905;28;20475;-61
2021/06/28 01:52:44;;;;;;;3.17;2.97;;;;;;;21.17;89.92;96185.47;5093427;28;20396;-60
2021/06/28 01:55:13;;;;;;;3.53;3.23;;;;;;;21.20;89.74;96188.34;5090024;28;20436;-60
2021/06/28 01:57:44;;;;;;;3.17;2.97;;;;;;;20.78;92.35;96185.88;5073390;28;20505;-62
2021/06/28 02:00:11;;;;;;;3.80;3.53;;;;;;;20.81;92.89;96192.53;5073662;28;20833;-60
2021/06/28 02:02:36;;;;;;;3.83;3.53;;;;;;;20.26;95.61;96189.69;5073104;28;20405;-62
2021/06/28 02:05:02;;;;;;;3.77;3.57;;;;;;;20.30;95.64;96182.69;5073240;28;20934;-62
2021/06/28 02:07:27;;;;;;;3.87;3.57;;;;;;;20.61;95.02;96176.84;5073297;28;20208;-60
2021/06/28 02:09:53;;;;;;;3.57;2.90;;;;;;;20.55;94.50;96180.69;5073457;28;20449;-62
2021/06/28 02:12:18;;;;;;;3.73;3.43;;;;;;;20.64;94.72;96170.91;5080153;28;20170;-60
2021/06/28 02:14:44;;;;;;;3.37;3.17;;;;;;;21.00;93.85;96169.22;5093636;28;20246;-62
2021/06/28 02:17:09;;;;;;;3.40;3.20;;;;;;;20.98;92.71;96166.03;5093404;28;20176;-60
2021/06/28 02:19:34;;;;;;;3.60;3.30;;;;;;;20.77;93.64;96162.94;5093342;28;20165;-62
2021/06/28 02:22:00;;;;;;;3.73;3.43;;;;;;;20.81;92.65;96171.16;5093101;28;20253;-62
2021/06/28 02:24:26;;;;;;;3.07;2.80;;;;;;;21.00;92.35;96169.22;5092584;28;20221;-62
2021/06/28 02:26:51;;;;;;;3.57;3.27;;;;;;;21.09;91.85;96170.91;5093258;28;20173;-61
2021/06/28 02:29:17;;;;;;;3.60;3.30;;;;;;;20.46;94.05;96170.69;5093421;28;20257;-60
2021/06/28 02:31:43;;;;;;;3.67;3.47;;;;;;;20.29;95.96;96186.44;5093102;28;20162;-61
2021/06/28 02:34:10;;;;;;;4.07;3.20;;;;;;;20.32;96.55;96180.53;5093091;28;20420;-63
2021/06/28 02:36:36;;;;;;;3.63;3.33;;;;;;;20.64;94.73;96178.94;5093186;28;20413;-61
2021/06/28 02:39:02;;;;;;;4.20;3.60;;;;;;;20.59;95.51;96189.69;5093048;28;20416;-60
2021/06/28 02:41:28;;;;;;;4.03;3.73;;;;;;;20.49;95.80;96179.97;5075529;28;20267;-61
2021/06/28 02:43:54;;;;;;;4.30;4.00;;;;;;;20.39;97.14;96186.28;5072871;28;20514;-60
2021/06/28 02:46:21;;;;;;;5.77;3.77;;;;;;;20.15;97.51;96201.56;5072974;28;20174;-61
2021/06/28 02:48:46;;;;;;;4.50;4.07;;;;;;;20.41;97.29;96202.81;5072860;28;21746;-60
2021/06/28 02:51:14;;;;;;;3.57;3.37;;;;;;;20.58;96.69;96188.13;5072940;28;20440;-60
2021/06/28 02:53:40;;;;;;;3.63;3.40;;;;;;;20.64;95.84;96182.41;5072391;28;20189;-60
2021/06/28 02:56:15;;;;;;;3.30;3.10;;;;;;;20.76;96.14;96190.75;5083439;28;20421;-62
2021/06/28 02:58:44;;;;;;;3.60;3.30;;;;;;;20.76;96.20;96182.75;5085122;28;20219;-60
2021/06/28 03:01:11;;;;;;;3.40;3.13;;;;;;;20.97;95.05;96185.81;5092899;28;20404;-60
2021/06/28 03:03:37;;;;;;;4.03;3.70;;;;;;;21.08;94.31;96195.28;5092636;28;20559;-61
2021/06/28 03:06:02;;;;;;;5.17;3.83;;;;;;;21.16;92.41;96202.63;5093056;28;20905;-60
2021/06/28 03:08:29;;;;;;;3.70;3.50;;;;;;;21.14;92.63;96207.47;5092976;28;20197;-62
2021/06/28 03:10:54;;;;;;;3.80;3.50;;;;;;;21.30;91.64;96212.22;5089392;28;20174;-62
2021/06/28 03:13:19;;;;;;;7.80;3.80;;;;;;;21.39;92.09;96212.31;5092500;28;20424;-62
2021/06/28 03:15:45;;;;;;;4.13;3.83;;;;;;;21.47;91.83;96208.94;5092781;28;20162;-62
2021/06/28 03:18:10;;;;;;;4.07;3.77;;;;;;;21.53;91.61;96210.44;5093325;28;20159;-60
2021/06/28 03:20:35;;;;;;;3.43;3.23;;;;;;;21.62;91.02;96213.19;5093000;28;20651;-60
2021/06/28 03:23:01;;;;;;;3.47;3.27;;;;;;;21.66;90.84;96208.81;5092560;28;20559;-62
2021/06/28 03:25:27;;;;;;;3.73;3.13;;;;;;;21.72;91.08;96213.00;5082254;28;20171;-61
2021/06/28 03:27:52;;;;;;;3.47;3.17;;;;;;;21.70;90.33;96215.16;5072718;28;20597;-61
2021/06/28 03:30:18;;;;;;;3.57;3.17;;;;;;;21.69;90.75;96217.03;5072676;28;20258;-61
2021/06/28 03:32:45;;;;;;;3.47;3.23;;;;;;;21.56;91.46;96201.03;5072212;28;20628;-62
2021/06/28 03:35:12;;;;;;;3.83;3.53;;;;;;;21.46;92.65;96204.69;5072525;28;20417;-60
2021/06/28 03:37:39;;;;;;;4.43;3.57;;;;;;;21.78;90.95;96175.13;5076058;28;20903;-62
2021/06/28 03:40:08;;;;;;;4.40;3.30;;;;;;;21.94;89.86;96152.31;5085446;28;20428;-61
2021/06/28 03:42:35;;;;;;;3.73;3.53;;;;;;;21.93;89.81;96150.72;5095930;28;20401;-61
2021/06/28 03:45:02;;;;;;;3.90;3.60;;;;;;;21.96;89.18;96155.47;5096251;28;20463;-62
2021/06/28 03:47:27;;;;;;;3.33;3.13;;;;;;;22.04;89.08;96162.78;5096159;28;20419;-60
2021/06/28 03:49:53;;;;;;;2.63;2.53;;;;;;;21.92;87.71;96169.78;5094666;28;20981;-62
2021/06/28 03:52:18;;;;;;;3.10;2.87;;;;;;;21.69;86.81;96174.25;5095955;28;20166;-60
2021/06/28 03:54:44;;;;;;;4.33;3.93;;;;;;;21.68;86.66;96170.00;5087155;28;20202;-62
2021/06/28 03:57:09;;;;;;;3.23;3.03;;;;;;;21.80;86.81;96166.81;5075910;28;20167;-62
2021/06/28 03:59:34;;;;;;;3.40;3.10;;;;;;;21.61;87.26;96176.84;5075644;28;20170;-61
2021/06/28 04:01:59;;;;;;;6.93;3.30;;;;;;;21.42;87.71;96174.28;5075210;28;20299;-60
2021/06/28 04:04:26;;;;;;;3.43;3.23;;;;;;;21.55;87.25;96170.00;5075726;28;20202;-60
2021/06/28 04:06:52;;;;;;;3.10;2.90;;;;;;;21.58;88.12;96164.84;5075481;28;20213;-62
2021/06/28 04:09:18;;;;;;;3.20;3.00;;;;;;;21.74;88.08;96163.44;5082141;28;20485;-62
2021/06/28 04:11:43;;;;;;;3.77;3.47;;;;;;;21.92;87.62;96173.22;5077039;28;21112;-61
2021/06/28 04:14:09;;;;;;;3.33;3.13;;;;;;;22.01;87.46;96165.28;5094753;28;20194;-62
2021/06/28 04:16:34;;;;;;;3.30;3.13;;;;;;;22.00;87.89;96175.19;5095518;28;20663;-62
2021/06/28 04:19:00;;;;;;;3.10;2.90;;;;;;;22.05;87.97;96174.31;5096010;28;20166;-61
2021/06/28 04:21:25;;;;;;;3.30;3.00;;;;;;;22.08;87.01;96174.47;5095209;28;20601;-61
2021/06/28 04:23:50;;;;;;;3.30;3.00;;;;;;;22.08;87.29;96162.97;5095190;28;20523;-61
2021/06/28 04:26:16;;;;;;;5.07;3.10;;;;;;;21.87;88.74;96148.50;5095469;28;20197;-61
2021/06/28 04:28:41;;;;;;;3.57;3.30;;;;;;;21.90;88.89;96147.88;5077269;28;20190;-62
2021/06/28 04:31:07;;;;;;;3.17;2.97;;;;;;;22.11;87.60;96141.75;5075036;28;20205;-62
2021/06/28 04:33:32;;;;;;;3.30;3.10;;;;;;;22.23;87.28;96154.59;5074493;28;20187;-62
2021/06/28 04:35:58;;;;;;;2.90;2.80;;;;;;;22.32;87.02;96152.78;5075183;28;20170;-60
2021/06/28 04:38:24;;;;;;;3.37;3.17;;;;;;;22.17;87.27;96159.28;5056858;28;20588;-62
2021/06/28 04:40:50;;;;;;;3.73;3.47;;;;;;;22.25;87.17;96171.13;5094196;28;20519;-60
2021/06/28 04:43:15;;;;;;;5.13;4.00;;;;;;;22.21;87.12;96175.53;5094417;28;20656;-61
2021/06/28 04:45:40;;;;;;;3.67;3.37;;;;;;;22.20;87.06;96180.09;5095312;28;20241;-61
2021/06/28 04:48:08;;;;;;;4.17;3.80;;;;;;;22.18;87.22;96182.28;5094481;28;20512;-62
2021/06/28 04:50:33;;;;;;;4.27;3.97;;;;;;;22.19;87.36;96186.50;5095029;28;20174;-62
2021/06/28 04:52:59;;;;;;;4.90;3.97;;;;;;;22.16;87.64;96183.66;5094567;28;20795;-60
2021/06/28 04:55:25;;;;;;;3.40;3.13;;;;;;;22.15;87.23;96188.25;5076379;28;20244;-60
2021/06/28 04:57:51;;;;;;;4.03;3.80;;;;;;;21.94;87.57;96184.41;5074634;28;20272;-60
2021/06/28 05:00:21;;;;;;;3.97;3.77;;;;;;;21.96;87.68;96186.81;5074500;28;20481;-60
2021/06/28 05:02:46;;;;;;;4.80;4.50;;;;;;;21.62;88.93;96181.88;5074311;28;20439;-60
2021/06/28 05:05:14;;;;;;;4.47;4.07;;;;;;;21.64;88.79;96185.06;5074393;28;20433;-60
2021/06/28 05:07:42;;;;;;;4.70;4.40;;;;;;;21.84;88.24;96181.97;5074367;28;20178;-60
2021/06/28 05:10:08;;;;;;;4.97;4.57;;;;;;;21.97;87.63;96183.84;5091368;28;20434;-62
2021/06/28 05:12:33;;;;;;;5.03;4.63;;;;;;;22.10;87.21;96185.66;5093343;28;20503;-63
2021/06/28 05:14:59;;;;;;;4.50;4.20;;;;;;;22.14;87.17;96189.31;5093456;28;20531;-61
2021/06/28 05:17:25;;;;;;;4.97;4.37;;;;;;;22.13;87.02;96186.94;5094554;28;20176;-61
2021/06/28 05:19:50;;;;;;;4.30;3.90;;;;;;;22.07;87.43;96194.31;5094476;28;20612;-64
2021/06/28 05:22:16;;;;;;;4.53;4.23;;;;;;;22.04;87.33;96191.44;5093140;28;20209;-62
2021/06/28 05:24:41;;;;;;;4.20;3.90;;;;;;;22.05;86.84;96185.00;5093201;28;20254;-62
2021/06/28 05:27:07;;;;;;;5.30;3.37;;;;;;;22.10;86.31;96177.63;5094216;28;20176;-62
2021/06/28 05:29:32;;;;;;;4.60;3.43;;;;;;;22.21;86.46;96181.66;5094091;28;20683;-62
2021/06/28 05:31:58;;;;;;;3.73;3.53;;;;;;;22.33;86.50;96176.56;5093933;28;20180;-64
2021/06/28 05:34:23;;;;;;;3.50;3.27;;;;;;;22.31;86.73;96177.94;5075909;28;20194;-62
2021/06/28 05:36:49;;;;;;;3.57;2.60;;;;;;;22.41;86.64;96180.41;5094146;28;20181;-61
2021/06/28 05:39:14;;;;;;;3.67;3.37;;;;;;;22.41;86.09;96175.06;5093140;28;20177;-62
2021/06/28 05:41:40;;;;;;;3.57;3.37;;;;;;;22.62;85.07;96178.84;5092106;28;20698;-63
2021/06/28 05:44:05;;;;;;;3.07;2.87;;;;;;;21.83;85.68;96168.91;5093950;28;20277;-64
2021/06/28 05:46:31;;;;;;;2.93;2.73;;;;;;;21.92;85.26;96172.44;5076106;28;20319;-62
2021/06/28 05:48:56;;;;;;;3.17;2.87;;;;;;;22.11;84.32;96171.19;5093951;28;20687;-61
2021/06/28 05:51:22;;;;;;;2.80;2.60;;;;;;;22.28;83.06;96173.22;5091579;28;20182;-63
2021/06/28 05:53:49;;;;;;;3.40;3.10;;;;;;;22.47;83.29;96179.16;5090963;28;20198;-70
2021/06/28 05:56:15;;;;;;;4.30;3.10;;;;;;;22.66;83.96;96179.00;5093835;28;20189;-66
2021/06/28 05:58:40;;;;;;;3.63;3.33;;;;;;;22.70;84.68;96177.31;5061112;28;20413;-68
2021/06/28 06:01:06;;;;;;;3.10;2.90;;;;;;;22.75;84.69;96174.50;5073435;28;20203;-69
2021/06/28 06:03:31;;;;;;;3.83;3.50;;;;;;;22.62;84.32;96176.16;5072951;28;20216;-71
2021/06/28 06:05:57;;;;;;;3.50;3.30;;;;;;;22.81;83.15;96174.03;5080432;28;20178;-65
2021/06/28 06:08:24;;;;;;;3.20;3.00;;;;;;;22.99;82.90;96162.31;5077704;28;20255;-65
2021/06/28 06:10:54;;;;;;;3.07;2.87;;;;;;;23.10;83.11;96178.94;5087279;28;20174;-65
2021/06/28 06:13:19;;;;;;;3.10;2.90;;;;;;;23.10;82.97;96170.88;5078299;28;20440;-65
2021/06/28 06:15:45;;;;;;;2.80;2.70;;;;;;;23.19;81.91;96177.84;5077311;28;20420;-73
2021/06/28 06:18:11;;;;;;;4.57;3.10;;;;;;;23.13;79.02;96176.41;5085265;28;20640;-64
2021/06/28 06:20:37;;;;;;;2.60;2.40;;;;;;;22.94;79.45;96175.84;5088953;28;20233;-73
2021/06/28 06:23:02;;;;;;;2.53;2.43;;;;;;;23.01;81.37;96172.75;5081398;28;20175;-73
2021/06/28 06:25:28;;;;;;;2.83;2.63;;;;;;;23.13;79.00;96171.06;5082900;28;20174;-66
2021/06/28 06:27:53;;;;;;;2.80;2.60;;;;;;;23.34;78.11;96169.41;5080999;28;20651;-73
2021/06/28 06:30:21;;;;;;;2.63;2.43;;;;;;;23.38;77.60;96167.69;5081313;28;20209;-65
2021/06/28 06:32:48;;;;;;;2.90;2.73;;;;;;;23.57;78.86;96174.69;5069595;28;20181;-65
2021/06/28 06:35:15;;;;;;;3.00;2.80;;;;;;;23.64;80.03;96175.03;5073102;28;20432;-74
2021/06/28 06:37:41;;;;;;;3.60;3.27;;;;;;;23.75;80.72;96177.06;5072974;28;20748;-65
2021/06/28 06:40:08;;;;;;;3.57;3.27;;;;;;;23.78;80.81;96181.03;5055721;28;20401;-73
2021/06/28 06:42:35;;;;;;;2.97;2.77;;;;;;;23.92;80.64;96182.47;5072603;28;20401;-65
2021/06/28 06:45:01;;;;;;;5.83;2.90;;;;;;;23.83;79.22;96179.00;5072794;28;20416;-63
2021/06/28 06:47:26;;;;;;;2.97;2.77;;;;;;;23.70;79.15;96187.97;5074633;28;20409;-73
2021/06/28 06:49:52;;;;;;;2.80;2.57;;;;;;;23.80;79.16;96187.69;5092890;28;20687;-74
2021/06/28 06:52:18;;;;;;;4.40;2.80;;;;;;;23.99;79.79;96182.00;5075317;28;20707;-65
2021/06/28 06:54:44;;;;;;;3.03;2.83;;;;;;;24.09;79.38;96197.84;5072894;28;20193;-73
2021/06/28 06:57:10;;;;;;;2.77;2.57;;;;;;;24.17;79.37;96197.84;5072728;28;20665;-73
2021/06/28 06:59:36;;;;;;;2.90;2.50;;;;;;;24.25;79.52;96199.75;5072815;28;20163;-65
2021/06/28 07:02:01;;;;;;;2.77;2.57;;;;;;;24.27;79.84;96208.28;5074154;28;20413;-73
2021/06/28 07:04:27;;;;;;;2.90;2.80;;;;;;;24.36;79.90;96211.78;5084931;28;20194;-73
2021/06/28 07:06:52;;;;;;;2.87;2.67;;;;;;;24.35;79.56;96204.00;5075759;28;20261;-65
2021/06/28 07:09:17;;;;;;;2.80;2.60;;;;;;;24.40;79.83;96203.88;5072806;28;20222;-73
2021/06/28 07:11:43;;;;;;;2.73;2.57;;;;;;;24.41;79.13;96202.75;5076212;28;20220;-65
2021/06/28 07:14:09;;;;;;;3.10;2.90;;;;;;;24.46;79.47;96210.63;5076556;28;20581;-68
2021/06/28 07:16:34;;;;;;;2.70;2.50;;;;;;;24.51;78.99;96215.88;5096218;28;20536;-65
2021/06/28 07:19:02;;;;;;;3.33;2.53;;;;;;;24.55;78.98;96218.72;5096920;28;20625;-73
2021/06/28 07:21:28;;;;;;;3.00;2.80;;;;;;;24.60;79.08;96215.84;5094334;28;20249;-64
2021/06/28 07:23:54;;;;;;;3.00;2.80;;;;;;;24.61;79.11;96217.44;5084384;28;20451;-62
2021/06/28 07:26:21;;;;;;;2.77;2.57;;;;;;;24.65;78.69;96215.69;5083527;28;20416;-64
2021/06/28 07:28:47;;;;;;;3.13;2.93;;;;;;;24.67;78.98;96208.09;5083898;28;20255;-65
2021/06/28 07:31:13;;;;;;;3.20;2.80;;;;;;;24.77;78.27;96207.78;5084195;28;20562;-65
2021/06/28 07:33:41;;;;;;;2.93;2.70;;;;;;;24.80;78.83;96209.84;5094615;28;20457;-68
2021/06/28 07:36:08;;;;;;;2.63;2.53;;;;;;;24.87;77.31;96220.91;5093786;28;20512;-70
2021/06/28 07:38:33;;;;;;;2.90;2.80;;;;;;;24.91;77.50;96222.63;5085099;28;20915;-63
2021/06/28 07:40:59;;;;;;;3.27;2.53;;;;;;;24.94;76.61;96229.28;5069275;28;20422;-63
2021/06/28 07:43:24;;;;;;;2.60;2.50;;;;;;;25.02;76.24;96229.25;5083580;28;20186;-70
2021/06/28 07:45:50;;;;;;;3.00;2.70;;;;;;;24.99;75.30;96229.91;5087039;28;20679;-70
2021/06/28 07:48:16;;;;;;;2.50;2.30;;;;;;;25.07;75.29;96225.59;5080149;28;20211;-63
2021/06/28 07:50:46;;;;;;;2.70;2.50;;;;;;;25.16;74.69;96229.06;5081055;28;20175;-70
2021/06/28 07:53:12;;;;;;;3.00;2.70;;;;;;;25.23;74.49;96230.16;5083047;28;20535;-71
2021/06/28 07:55:38;;;;;;;2.77;2.57;;;;;;;25.28;74.29;96232.66;5081146;28;20865;-64
2021/06/28 07:58:04;;;;;;;2.80;2.70;;;;;;;25.37;73.56;96232.63;5083172;28;20440;-69
2021/06/28 08:00:30;;;;;;;2.47;2.37;;;;;;;25.32;72.82;96233.59;5083103;28;20170;-67
2021/06/28 08:02:55;;;;;;;3.00;2.60;;;;;;;25.50;73.38;96228.16;5081434;28;20538;-71
2021/06/28 08:05:20;;;;;;;2.80;2.60;;;;;;;25.60;73.32;96233.19;5080077;28;20633;-69
2021/06/28 08:07:46;;;;;;;2.90;2.70;;;;;;;25.67;74.04;96233.47;5079350;28;20644;-63
2021/06/28 08:10:14;;;;;;;2.90;2.43;;;;;;;25.75;72.83;96230.72;5082242;28;20194;-64
2021/06/28 08:12:41;;;;;;;2.83;2.63;;;;;;;25.81;72.10;96224.06;5082814;28;20696;-70
2021/06/28 08:15:08;;;;;;;2.87;2.77;;;;;;;25.88;70.62;96224.31;5081370;28;20447;-62
2021/06/28 08:17:33;;;;;;;3.33;2.80;;;;;;;25.92;70.26;96225.25;5076919;28;20450;-63
2021/06/28 08:19:59;;;;;;;2.77;2.50;;;;;;;26.05;70.88;96218.06;5082327;28;21257;-63
2021/06/28 08:22:24;;;;;;;3.07;2.87;;;;;;;26.09;70.26;96225.16;5078690;28;20263;-69
2021/06/28 08:24:50;;;;;;;3.40;3.20;;;;;;;26.09;70.05;96227.84;5079707;28;20751;-67
2021/06/28 08:27:15;;;;;;;2.87;2.77;;;;;;;26.16;69.68;96221.97;5080570;28;20224;-66
2021/06/28 08:29:42;;;;;;;3.93;3.07;;;;;;;26.19;66.87;96216.72;5083307;28;20599;-70
2021/06/28 08:32:08;;;;;;;2.90;2.70;;;;;;;26.32;68.42;96214.88;5086088;28;20299;-70
2021/06/28 08:34:33;;;;;;;3.80;2.80;;;;;;;26.44;67.86;96212.22;5083200;28;20445;-71
2021/06/28 08:36:59;;;;;;;5.77;2.60;;;;;;;26.56;67.60;96208.81;5083169;28;20167;-71
2021/06/28 08:39:25;;;;;;;2.73;2.53;;;;;;;26.66;67.12;96205.69;5083599;28;20182;-71
2021/06/28 08:41:55;;;;;;;2.77;2.57;;;;;;;26.72;66.61;96212.47;5085674;28;20178;-64
2021/06/28 08:44:22;;;;;;;2.60;2.47;;;;;;;26.54;65.18;96209.13;5085785;28;20197;-64
2021/06/28 08:46:48;;;;;;;3.17;2.97;;;;;;;26.39;67.54;96217.81;5090573;28;20421;-65
2021/06/28 08:49:14;;;;;;;2.80;2.60;;;;;;;26.72;66.94;96215.97;5082545;28;20444;-72
2021/06/28 08:51:41;;;;;;;2.83;2.67;;;;;;;26.77;65.58;96218.47;5083445;28;20417;-71
2021/06/28 08:54:10;;;;;;;2.70;2.50;;;;;;;26.96;64.83;96223.38;5085792;28;20436;-71
2021/06/28 08:56:37;;;;;;;3.03;2.80;;;;;;;27.08;63.20;96220.69;5085419;28;20458;-64
2021/06/28 08:59:05;;;;;;;2.57;2.47;;;;;;;27.12;61.64;96221.59;5094131;28;20416;-71
2021/06/28 09:01:33;;;;;;;2.60;2.40;;;;;;;27.32;61.90;96218.06;5085401;28;20424;-71
2021/06/28 09:03:59;;;;;;;2.87;2.67;;;;;;;27.29;59.19;96227.59;5082947;28;20445;-64
2021/06/28 09:06:25;;;;;;;4.23;2.80;;;;;;;27.41;60.29;96235.72;5082334;28;20417;-64
2021/06/28 09:09:00;;;;;;;3.50;3.20;;;;;;;27.43;57.77;96238.88;5082816;28;20459;-64
2021/06/28 09:11:26;;;;;;;2.50;2.30;;;;;;;27.50;57.53;96241.03;5085127;28;20828;-70
2021/06/28 09:13:55;;;;;;;3.00;2.80;;;;;;;26.95;57.68;96244.16;5084947;28;20440;-70
2021/06/28 09:16:21;;;;;;;3.63;2.93;;;;;;;27.19;57.86;96248.81;5085884;28;20419;-63
2021/06/28 09:18:50;;;;;;;2.87;2.47;;;;;;;27.54;59.26;96244.63;5085623;28;20412;-64
2021/06/28 09:21:16;;;;;;;3.37;3.17;;;;;;;27.75;58.84;96239.91;5090353;28;20443;-64
2021/06/28 09:23:42;;;;;;;2.80;2.43;;;;;;;27.97;60.19;96247.59;5081710;28;21005;-71
2021/06/28 09:26:15;;;;;;;4.00;2.80;;;;;;;27.79;56.33;96248.94;5083155;28;20174;-71
2021/06/28 09:28:44;;;;;;;2.83;2.63;;;;;;;27.34;56.28;96242.78;5084902;28;20460;-64
2021/06/28 09:31:16;;;;;;;2.53;2.40;;;;;;;27.50;56.77;96238.34;5084102;28;20408;-64
2021/06/28 09:33:42;;;;;;;4.23;2.60;;;;;;;27.57;56.94;96235.88;5081345;28;20531;-71
2021/06/28 09:36:23;;;;;;;2.43;2.33;;;;;;;27.71;57.45;96236.31;5081819;28;20991;-71
2021/06/28 09:38:49;;;;;;;2.67;2.47;;;;;;;27.77;56.79;96240.38;5079314;28;20648;-64
2021/06/28 09:41:33;;;;;;;2.67;2.57;;;;;;;27.75;54.87;96231.81;5085433;28;20424;-64
2021/06/28 09:44:04;;;;;;;4.30;2.50;;;;;;;27.66;53.80;96225.72;5093773;28;20843;-63
2021/06/28 09:46:30;;;;;;;3.27;2.97;;;;;;;27.87;56.20;96226.41;5094046;28;20834;-64
2021/06/28 09:48:56;;;;;;;2.73;2.53;;;;;;;28.18;55.70;96212.31;5093678;28;20560;-71
2021/06/28 09:51:22;;;;;;;2.77;2.50;;;;;;;28.05;51.66;96208.03;5093934;28;20166;-71
2021/06/28 09:53:50;;;;;;;3.07;2.87;;;;;;;28.19;52.26;96208.47;5093368;28;20518;-71
2021/06/28 09:56:33;;;;;;;2.97;2.67;;;;;;;28.36;53.45;96209.00;5074097;28;20637;-71
2021/06/28 09:59:17;;;;;;;2.80;2.60;;;;;;;28.50;52.85;96213.25;5073586;28;20401;-71
2021/06/28 10:01:43;;;;;;;2.83;2.10;;;;;;;28.71;53.69;96206.53;5073310;28;20896;-64
2021/06/28 10:04:08;;;;;;;2.70;2.50;;;;;;;28.83;53.83;96211.09;5073394;28;20417;-71
2021/06/28 10:06:35;;;;;;;2.80;2.70;;;;;;;29.02;52.88;96206.59;5073298;28;20159;-64
2021/06/28 10:09:03;;;;;;;2.70;2.50;;;;;;;29.12;52.75;96208.81;5075741;28;20241;-64
2021/06/28 10:11:29;;;;;;;3.27;2.90;;;;;;;29.11;52.60;96209.97;5087262;28;20466;-72
2021/06/28 10:14:04;;;;;;;2.63;2.53;;;;;;;29.04;52.00;96206.25;5073113;28;20421;-68
2021/06/28 10:16:33;;;;;;;2.57;2.47;;;;;;;29.02;52.15;96203.09;5078382;28;20513;-69
2021/06/28 10:18:59;;;;;;;4.40;2.50;;;;;;;29.28;52.80;96193.38;5093387;28;20874;-68
2021/06/28 10:21:27;;;;;;;2.83;2.63;;;;;;;29.50;52.03;96194.66;5093100;28;20396;-63
2021/06/28 10:23:53;;;;;;;3.93;2.53;;;;;;;29.69;52.77;96194.78;5093209;28;20771;-61
2021/06/28 10:26:18;;;;;;;2.70;2.60;;;;;;;29.76;50.57;96205.00;5073650;28;20417;-69
2021/06/28 10:28:45;;;;;;;2.53;2.33;;;;;;;29.45;45.95;96202.28;5073342;28;20186;-61
2021/06/28 10:31:13;;;;;;;2.90;2.70;;;;;;;29.57;49.17;96197.53;5073118;28;20573;-60
2021/06/28 10:33:41;;;;;;;3.10;2.80;;;;;;;29.78;48.26;96195.38;5072802;28;20425;-56
2021/06/28 10:36:09;;;;;;;3.10;2.90;;;;;;;29.76;49.97;96189.53;5074455;28;20566;-63
2021/06/28 10:38:46;;;;;;;2.70;2.47;;;;;;;29.97;49.71;96190.00;5090797;28;20426;-59
2021/06/28 10:41:13;;;;;;;2.90;2.70;;;;;;;30.18;50.75;96176.88;5073109;28;20948;-66
2021/06/28 10:43:39;;;;;;;2.83;2.70;;;;;;;30.33;49.08;96181.50;5072477;28;20451;-59
2021/06/28 10:46:08;;;;;;;2.70;2.50;;;;;;;30.50;48.64;96174.88;5076414;28;20447;-64
2021/06/28 10:48:48;;;;;;;3.00;2.80;;;;;;;30.65;48.11;96165.88;5076953;28;20468;-67
2021/06/28 10:51:15;;;;;;;2.67;2.47;;;;;;;30.76;48.75;96169.59;5076800;28;20492;-69
2021/06/28 10:53:40;;;;;;;2.60;2.40;;;;;;;30.85;47.46;96170.16;5056720;28;20822;-66
2021/06/28 10:56:31;;;;;;;3.67;2.67;;;;;;;31.05;49.02;96170.91;5055178;28;20421;-71
2021/06/28 10:59:02;;;;;;;2.67;2.47;;;;;;;31.06;45.32;96165.09;5073021;28;20245;-70
2021/06/28 11:01:34;;;;;;;2.40;2.30;;;;;;;30.97;44.69;96161.06;5073061;28;20412;-65
2021/06/28 11:04:14;;;;;;;2.70;2.60;;;;;;;30.63;43.50;96157.31;5072578;28;20475;-66
2021/06/28 11:06:51;;;;;;;2.53;2.33;;;;;;;30.67;45.24;96163.59;5072912;28;20412;-65
2021/06/28 11:09:17;;;;;;;2.50;2.40;;;;;;;30.97;46.37;96152.91;5084035;28;20451;-66
2021/06/28 11:11:45;;;;;;;3.00;2.80;;;;;;;31.22;50.30;96152.19;5092879;28;20423;-72
2021/06/28 11:14:19;;;;;;;2.90;2.70;;;;;;;31.40;47.28;96147.06;5093288;28;20194;-71
2021/06/28 11:16:58;;;;;;;2.53;2.43;;;;;;;31.52;48.46;96155.03;5092523;28;20749;-66
2021/06/28 11:19:46;;;;;;;2.10;2.00;;;;;;;31.26;45.87;96144.88;5093028;28;20776;-71
2021/06/28 11:22:32;;;;;;;2.57;2.40;;;;;;;31.10;44.38;96148.88;5092740;28;20504;-66
2021/06/28 11:25:01;;;;;;;2.77;2.67;;;;;;;31.41;46.50;96139.69;5073732;28;20511;-71
2021/06/28 11:27:27;;;;;;;2.40;2.30;;;;;;;31.27;48.03;96138.28;5072560;28;20759;-66
2021/06/28 11:29:54;;;;;;;2.60;2.40;;;;;;;31.41;45.01;96142.41;5072156;28;20517;-73
2021/06/28 11:32:26;;;;;;;2.50;2.20;;;;;;;31.02;43.81;96142.53;5072244;28;20496;-72